Impacts TAF Board INFO
FOR SITUATIONAL AWARENESS. NOT TO BE USED FOR FLIGHT PLANNING PURPOSES.
IDs:

KATL - Atlanta/Hartsfield-J, GA, US

Issued at 0755 UTC 20 Jan 2018
Updated at 0916 UTC 20 Jan 2018
Potential Impact None Slight Moderate High
Time0852Z 20/10Z 20/11Z 20/12Z 20/13Z 20/14Z 20/15Z 20/16Z 20/17Z 20/18Z 20/19Z 20/20Z 20/21Z 20/22Z>>
Type OBS PRVL PRVL PRVL PRVL PRVL PRVL PRVL PRVL PRVL PRVL PRVL PRVL PRVL
VIS 10 >6 >6 >6 >6 >6 >6 >6 >6 >6 >6 >6 >6 >6
CIG -- -- -- -- -- -- -- 35 35 35 35 35 35 35
Cover CLR SKC SKC SCT SCT SCT SCT BKN BKN BKN BKN BKN BKN BKN
FltCat VFR VFR VFR VFR VFR VFR VFR VFR VFR VFR VFR VFR VFR VFR
WX -- -- -- -- -- -- -- -- -- -- -- -- -- --
WDir 290 280 280 290 290 290 290 290 290 290 290 290 290 290
WSpd 8 5 5 4 4 4 4 5 5 5 5 5 5 5
WGst -- -- -- -- -- -- -- -- -- -- -- -- -- --

Raw TAF
KATL 200755Z 2008/2112 28005KT P6SM SKC
  FM201200 29004KT P6SM SCT040
  FM201600 29005KT P6SM BKN035
  FM210000 29005KT P6SM BKN050
  FM210300 25003KT P6SM SCT040 SCT250


Raw METAR
KATL 200852Z 29008KT 10SM CLR 02/M10 A3024 RMK AO2 SLP246 T00221100 53002
KATL 200752Z 30007KT 10SM CLR 02/M11 A3024 RMK AO2 SLP246 T00171106
KATL 200652Z 29007KT 10SM CLR 02/M11 A3023 RMK AO2 SLP243 T00221106

METAR Board
Radar Display
Forecast Discussion

FOR SITUATIONAL AWARENESS. NOT TO BE USED FOR FLIGHT PLANNING PURPOSES.